Terminal Aerodrome Forecast
Issued by NWS

Home | Current Version | Previous Version | Text Only | Print | Product List | Glossary On
Versions: 1 2 3 4 5 6 7 8 9 10 11 12 13 14 15 16 17 18 19 20 21
000
FTUS43 KLSX 292200 AAB
TAFUIN
TAF AMD
KUIN 292208Z 2922/3018 19008KT 6SM -SHRA VCTS BKN040CB OVC080
      TEMPO 2922/2923 VRB15G30KT 2SM TSRA OVC030CB
     FM300100 20007KT P6SM BKN050
     FM301000 23008KT P6SM SCT020=

USA.gov is the U.S. government's official web portal to all federal, state and local government web resources and services.